Rushville, Illinois
Current Conditions -  °F | °C
As of 11:55 AM on Saturday 25 Oct 2014 (Local Time) from KMQB Reporting Station
Clear Clear  
Wind Chill: 69°   Ceiling: Unl
Heat Index: 69°   Visibility: 10mi
Dew Point: 51°   Wind: 8mph
Humidity: 52%   Direction: 350°N
Pressure: 30.06"   Gusts: NA
Location:  40.12°N, 90.56°W
Report Text: KMQB 251655Z AUTO 35007KT 10SM CLR 21/10 A3006 RMK AO2 T02050103
Loading
Personal Weather Stations






























Interactive Weather Map
Tropical Storm Tracking
New forecast layout! Learn more

10-Day Weather Forecast

Advertisements
Track Severe Weather on mobile